Time;durP1;ratioP1;P1;durP2;ratioP2;P2;SDS_P1;SDS_P2;PMS_P1;PMS_P2;Temp;Humidity;BMP_temperature;BMP_pressure;BME280_temperature;BME280_humidity;BME280_pressure;Samples;Min_cycle;Max_cycle;Signal;HPM_P1;HPM_P2
2021/04/09 00:02:19;;;;;;;1.87;0.70;;;15.10;93.00;;;;;;5006607;28;20210;-91
2021/04/09 00:04:50;;;;;;;0.97;0.50;;;15.20;95.60;;;;;;5015494;28;20206;-91
2021/04/09 00:07:21;;;;;;;1.43;0.57;;;14.90;93.50;;;;;;5008582;28;20202;-91
2021/04/09 00:09:52;;;;;;;1.43;0.53;;;14.30;92.70;;;;;;5004259;28;20217;-93
2021/04/09 00:12:22;;;;;;;1.03;0.70;;;13.70;93.80;;;;;;5005865;28;20202;-93
2021/04/09 00:14:52;;;;;;;1.13;0.50;;;13.30;93.70;;;;;;5004874;28;20296;-93
2021/04/09 00:17:25;;;;;;;0.93;0.60;;;13.30;93.30;;;;;;4998029;28;20218;-90
2021/04/09 00:19:56;;;;;;;33.20;3.10;;;13.50;93.80;;;;;;5003102;28;20276;-91
2021/04/09 00:22:26;;;;;;;5.50;1.07;;;13.30;93.70;;;;;;5004452;28;20206;-92
2021/04/09 00:24:57;;;;;;;0.63;0.60;;;13.30;93.60;;;;;;5004304;28;20210;-93
2021/04/09 00:27:28;;;;;;;1.73;0.40;;;13.30;95.20;;;;;;4998064;28;20250;-92
2021/04/09 00:29:59;;;;;;;0.60;0.40;;;13.40;94.20;;;;;;4997701;28;20206;-90
2021/04/09 00:32:34;;;;;;;1.13;0.60;;;13.40;93.20;;;;;;4999916;28;20287;-90
2021/04/09 00:35:06;;;;;;;4.13;1.07;;;13.20;94.40;;;;;;5002253;28;20210;-92
2021/04/09 00:37:37;;;;;;;1.30;0.70;;;13.00;95.40;;;;;;5001893;28;20206;-91
2021/04/09 00:40:13;;;;;;;1.30;0.67;;;12.80;95.60;;;;;;5003220;28;20259;-91
2021/04/09 00:42:46;;;;;;;1.77;0.90;;;12.50;96.30;;;;;;5012257;28;20296;-91
2021/04/09 00:45:18;;;;;;;3.07;1.00;;;12.50;96.90;;;;;;5011816;28;20667;-93
2021/04/09 00:47:52;;;;;;;1.20;0.73;;;12.50;95.60;;;;;;5009442;28;20210;-93
2021/04/09 00:50:23;;;;;;;1.27;0.67;;;12.60;95.80;;;;;;5011655;28;20210;-92
2021/04/09 00:52:56;;;;;;;2.20;0.80;;;12.60;95.70;;;;;;5014550;28;20210;-93
2021/04/09 00:55:27;;;;;;;1.77;0.90;;;12.60;97.10;;;;;;5014413;28;20210;-92
2021/04/09 00:58:03;;;;;;;4.10;1.03;;;12.40;96.90;;;;;;5015230;28;20270;-91
2021/04/09 01:00:34;;;;;;;3.63;0.87;;;12.30;96.80;;;;;;5013654;28;20210;-93
2021/04/09 01:03:08;;;;;;;3.37;0.90;;;12.30;96.90;;;;;;5012039;28;20230;-90
2021/04/09 01:05:39;;;;;;;2.23;0.93;;;12.00;98.20;;;;;;5008521;28;20697;-93
2021/04/09 01:08:10;;;;;;;4.10;1.27;;;11.80;99.40;;;;;;5003800;28;20667;-93
2021/04/09 01:10:42;;;;;;;3.30;0.83;;;11.80;99.70;;;;;;5008349;28;20232;-93
2021/04/09 01:13:14;;;;;;;3.47;1.00;;;11.90;99.70;;;;;;5008435;28;20234;-93
2021/04/09 01:15:45;;;;;;;1.67;0.80;;;11.80;99.90;;;;;;5007928;28;20214;-92
2021/04/09 01:18:22;;;;;;;1.07;0.73;;;11.60;99.90;;;;;;5006531;28;20207;-93
2021/04/09 01:21:02;;;;;;;2.93;1.00;;;11.60;99.90;;;;;;5004181;28;20272;-92
2021/04/09 01:23:51;;;;;;;1.03;0.80;;;11.60;99.90;;;;;;5001119;28;20693;-93
2021/04/09 01:27:00;;;;;;;1.47;0.90;;;11.50;99.90;;;;;;5001343;28;20222;-93
2021/04/09 01:30:06;;;;;;;1.77;0.70;;;11.40;99.90;;;;;;5002286;28;20202;-93
2021/04/09 01:32:37;;;;;;;2.40;0.90;;;11.30;99.90;;;;;;5017229;28;20205;-91
2021/04/09 01:35:14;;;;;;;1.30;0.90;;;11.30;99.90;;;;;;5018070;28;20232;-92
2021/04/09 01:37:48;;;;;;;1.43;1.20;;;11.30;99.90;;;;;;5007410;28;20205;-92
2021/04/09 01:40:22;;;;;;;2.07;1.00;;;11.30;99.90;;;;;;4983669;28;20651;-92
2021/04/09 01:42:56;;;;;;;1.53;1.00;;;11.20;99.90;;;;;;4982862;28;20226;-91
2021/04/09 01:45:30;;;;;;;2.10;1.23;;;11.10;99.90;;;;;;4978753;28;20678;-91
2021/04/09 01:48:04;;;;;;;2.27;1.17;;;11.10;99.90;;;;;;4979297;28;20262;-92
2021/04/09 01:50:36;;;;;;;2.97;1.00;;;11.10;99.90;;;;;;4982519;28;20234;-92
2021/04/09 01:53:11;;;;;;;2.03;0.80;;;11.00;99.90;;;;;;4988846;28;20281;-93
2021/04/09 01:55:46;;;;;;;3.47;1.07;;;11.00;99.90;;;;;;4988411;28;20214;-92
2021/04/09 01:58:18;;;;;;;1.77;0.80;;;10.90;99.90;;;;;;4985219;28;20294;-92
2021/04/09 02:00:49;;;;;;;5.30;1.00;;;11.00;99.90;;;;;;4978386;28;20244;-92
2021/04/09 02:03:23;;;;;;;1.67;0.90;;;11.00;99.90;;;;;;4978716;28;20231;-92
2021/04/09 02:05:59;;;;;;;2.00;0.80;;;10.80;99.90;;;;;;4983642;28;20202;-91
2021/04/09 02:08:32;;;;;;;2.50;0.90;;;10.80;99.90;;;;;;4997983;28;20222;-92
2021/04/09 02:11:03;;;;;;;3.53;0.93;;;10.80;99.90;;;;;;4998412;28;20226;-91
2021/04/09 02:13:36;;;;;;;1.40;0.80;;;10.90;99.90;;;;;;4998115;28;20207;-92
2021/04/09 02:16:08;;;;;;;2.00;0.97;;;10.80;99.90;;;;;;4998589;28;20237;-93
2021/04/09 02:18:42;;;;;;;3.87;1.87;;;10.70;99.90;;;;;;4997104;28;20214;-93
2021/04/09 02:21:13;;;;;;;2.60;1.07;;;10.70;99.90;;;;;;4998385;28;20268;-93
2021/04/09 02:23:44;;;;;;;2.40;1.00;;;10.70;99.90;;;;;;4998511;28;20241;-92
2021/04/09 02:26:15;;;;;;;4.73;1.17;;;10.60;99.90;;;;;;5006817;28;20281;-92
2021/04/09 02:28:49;;;;;;;2.57;0.80;;;10.60;99.90;;;;;;5013000;28;20221;-93
2021/04/09 02:31:34;;;;;;;2.60;0.80;;;10.60;99.90;;;;;;5013636;28;20278;-93
2021/04/09 02:34:07;;;;;;;1.50;0.80;;;10.50;99.90;;;;;;5014916;28;20237;-92
2021/04/09 02:36:37;;;;;;;6.50;0.90;;;10.40;99.90;;;;;;5014131;28;20210;-92
2021/04/09 02:39:15;;;;;;;2.77;1.50;;;10.50;99.90;;;;;;5014493;28;20203;-91
2021/04/09 02:41:51;;;;;;;2.53;1.47;;;10.50;99.90;;;;;;5012743;28;20201;-91
2021/04/09 02:44:23;;;;;;;2.30;0.80;;;10.40;99.90;;;;;;5011143;28;20233;-91
2021/04/09 02:46:58;;;;;;;2.47;0.90;;;10.40;99.90;;;;;;5009849;28;20206;-90
2021/04/09 02:49:37;;;;;;;2.20;0.87;;;10.30;99.90;;;;;;5010269;28;20250;-91
2021/04/09 02:52:19;;;;;;;3.27;1.07;;;10.20;99.90;;;;;;5009904;28;20324;-92
2021/04/09 02:54:52;;;;;;;1.57;1.00;;;10.10;99.90;;;;;;5009894;28;20225;-91
2021/04/09 02:57:26;;;;;;;1.23;1.10;;;10.10;99.90;;;;;;5007367;28;20237;-91
2021/04/09 03:00:01;;;;;;;2.20;1.13;;;10.00;99.90;;;;;;5007747;28;20201;-90
2021/04/09 03:02:37;;;;;;;1.37;0.77;;;10.00;99.90;;;;;;5008822;28;20206;-91
2021/04/09 03:05:13;;;;;;;2.40;0.90;;;10.00;99.90;;;;;;5009527;28;20214;-91
2021/04/09 03:07:46;;;;;;;2.60;1.23;;;10.00;99.90;;;;;;5009763;28;20210;-92
2021/04/09 03:10:17;;;;;;;3.00;1.10;;;10.00;99.90;;;;;;5005363;28;20678;-92
2021/04/09 03:12:48;;;;;;;1.60;1.07;;;10.00;99.90;;;;;;4999531;28;20214;-92
2021/04/09 03:15:22;;;;;;;3.47;1.40;;;9.90;99.90;;;;;;5001597;28;20255;-93
2021/04/09 03:17:57;;;;;;;3.23;1.20;;;9.90;99.90;;;;;;5001528;28;20646;-92
2021/04/09 03:20:29;;;;;;;3.63;1.07;;;9.90;99.90;;;;;;5000890;28;20264;-92
2021/04/09 03:22:59;;;;;;;2.30;1.33;;;9.80;99.90;;;;;;5000485;28;20207;-92
2021/04/09 03:25:29;;;;;;;2.70;1.17;;;9.80;99.90;;;;;;5007940;28;20210;-92
2021/04/09 03:28:01;;;;;;;2.97;1.10;;;9.70;99.90;;;;;;5003177;28;20218;-94
2021/04/09 03:30:31;;;;;;;1.30;0.90;;;9.70;99.90;;;;;;5004005;28;20203;-92
2021/04/09 03:33:02;;;;;;;3.90;1.20;;;9.70;99.90;;;;;;5004929;28;20217;-93
2021/04/09 03:35:35;;;;;;;1.60;1.07;;;9.70;99.90;;;;;;4998997;28;20207;-93
2021/04/09 03:38:06;;;;;;;1.77;1.13;;;9.60;99.90;;;;;;4981501;28;20294;-92
2021/04/09 03:40:38;;;;;;;2.80;1.20;;;9.50;99.90;;;;;;4980749;28;20238;-92
2021/04/09 03:43:11;;;;;;;1.70;0.70;;;9.50;99.90;;;;;;4980916;28;20230;-92
2021/04/09 03:45:42;;;;;;;1.87;1.30;;;9.40;99.90;;;;;;4979028;28;20219;-92
2021/04/09 03:48:13;;;;;;;3.37;1.40;;;9.40;99.90;;;;;;4982096;28;20586;-92
2021/04/09 03:50:45;;;;;;;2.90;1.00;;;9.40;99.90;;;;;;4979485;28;20210;-92
2021/04/09 03:53:16;;;;;;;2.93;1.17;;;9.40;99.90;;;;;;4996906;28;20241;-93
2021/04/09 03:55:47;;;;;;;2.10;1.10;;;9.40;99.90;;;;;;4999243;28;20233;-92
2021/04/09 03:58:18;;;;;;;1.77;1.13;;;9.40;99.90;;;;;;4996467;28;20216;-92
2021/04/09 04:00:49;;;;;;;3.33;1.20;;;9.30;99.90;;;;;;5005645;28;20190;-92
2021/04/09 04:03:23;;;;;;;1.50;0.90;;;9.30;99.90;;;;;;5016500;28;20214;-91
2021/04/09 04:05:56;;;;;;;0.97;0.83;;;9.30;99.90;;;;;;5016048;28;20194;-92
2021/04/09 04:08:26;;;;;;;2.20;1.13;;;9.30;99.90;;;;;;5001871;28;20202;-92
2021/04/09 04:10:57;;;;;;;3.33;1.30;;;9.30;99.90;;;;;;5000750;28;20210;-93
2021/04/09 04:13:28;;;;;;;1.23;1.00;;;9.30;99.90;;;;;;4997550;28;20216;-92
2021/04/09 04:15:59;;;;;;;2.57;1.30;;;9.30;99.90;;;;;;4996996;28;20624;-93
2021/04/09 04:18:31;;;;;;;3.53;1.00;;;9.20;99.90;;;;;;4996028;28;20210;-93
2021/04/09 04:21:06;;;;;;;3.37;1.00;;;9.20;99.90;;;;;;4997061;28;20241;-93
2021/04/09 04:23:36;;;;;;;2.80;1.00;;;9.20;99.90;;;;;;4996924;28;20229;-93
2021/04/09 04:26:07;;;;;;;1.83;1.50;;;9.10;99.90;;;;;;4997860;28;20214;-93
2021/04/09 04:28:39;;;;;;;3.73;1.17;;;9.10;99.90;;;;;;4998173;28;20214;-92
2021/04/09 04:31:09;;;;;;;2.00;1.10;;;9.10;99.90;;;;;;4999461;28;20214;-92
2021/04/09 04:33:42;;;;;;;2.37;1.20;;;9.00;99.90;;;;;;5002702;28;20217;-92
2021/04/09 04:36:17;;;;;;;2.03;1.33;;;8.90;99.90;;;;;;4999983;28;20220;-93
2021/04/09 04:38:48;;;;;;;1.43;1.30;;;8.70;99.90;;;;;;5002481;28;20241;-93
2021/04/09 04:41:20;;;;;;;1.33;1.10;;;8.70;99.90;;;;;;5003579;28;20268;-93
2021/04/09 04:43:50;;;;;;;2.90;1.30;;;8.60;99.90;;;;;;5005171;28;20221;-92
2021/04/09 04:46:22;;;;;;;1.93;1.30;;;8.60;99.90;;;;;;5004847;28;20256;-92
2021/04/09 04:48:53;;;;;;;3.03;1.17;;;8.60;99.90;;;;;;5005887;28;20205;-92
2021/04/09 04:51:27;;;;;;;3.97;1.37;;;8.50;99.90;;;;;;5016450;28;20226;-94
2021/04/09 04:53:57;;;;;;;4.30;1.73;;;8.50;99.90;;;;;;5016487;28;20198;-92
2021/04/09 04:56:27;;;;;;;3.20;1.13;;;8.30;99.90;;;;;;5014720;28;20205;-91
2021/04/09 04:58:57;;;;;;;6.40;1.40;;;8.10;99.90;;;;;;5015772;28;20213;-91
2021/04/09 05:01:28;;;;;;;1.80;1.17;;;8.10;99.90;;;;;;5015972;28;20265;-92
2021/04/09 05:03:58;;;;;;;2.30;1.20;;;8.00;99.90;;;;;;5009514;28;20232;-91
2021/04/09 05:06:31;;;;;;;3.93;1.30;;;7.90;99.90;;;;;;4996696;28;20206;-91
2021/04/09 05:09:01;;;;;;;4.00;1.40;;;7.80;99.90;;;;;;4997046;28;20239;-91
2021/04/09 05:11:32;;;;;;;6.13;1.60;;;7.80;99.90;;;;;;4995962;28;20267;-92
2021/04/09 05:14:03;;;;;;;5.40;1.47;;;7.70;99.90;;;;;;4996197;28;20241;-93
2021/04/09 05:16:33;;;;;;;5.37;1.70;;;7.60;99.90;;;;;;4999474;28;20621;-93
2021/04/09 05:19:04;;;;;;;4.13;1.30;;;7.50;99.90;;;;;;4999371;28;20218;-93
2021/04/09 05:21:36;;;;;;;5.17;1.30;;;7.50;99.90;;;;;;5002203;28;20279;-93
2021/04/09 05:24:07;;;;;;;5.23;1.73;;;7.50;99.90;;;;;;4999772;28;20263;-92
2021/04/09 05:26:37;;;;;;;4.47;1.47;;;7.40;99.90;;;;;;5003230;28;20206;-92
2021/04/09 05:29:07;;;;;;;3.47;1.30;;;7.30;99.90;;;;;;4984378;28;20206;-92
2021/04/09 05:31:38;;;;;;;2.73;1.10;;;7.30;99.90;;;;;;4986771;28;20215;-93
2021/04/09 05:34:09;;;;;;;4.63;1.30;;;7.20;99.90;;;;;;4985721;28;20226;-93
2021/04/09 05:37:09;;;;;;;5.20;1.57;;;7.10;99.90;;;;;;4980409;28;20199;-93
2021/04/09 05:39:39;;;;;;;2.10;1.17;;;7.10;99.90;;;;;;4981154;28;20215;-92
2021/04/09 05:42:10;;;;;;;4.20;1.30;;;7.00;99.90;;;;;;4979659;28;20207;-93
2021/04/09 05:44:42;;;;;;;6.23;1.80;;;7.00;99.90;;;;;;4980300;28;20235;-92
2021/04/09 05:47:13;;;;;;;5.63;2.27;;;7.00;99.90;;;;;;4979408;28;20205;-92
2021/04/09 05:49:44;;;;;;;4.80;1.23;;;6.90;99.90;;;;;;4980190;28;20268;-92
2021/04/09 05:52:16;;;;;;;4.57;1.00;;;6.80;99.90;;;;;;4980102;28;20210;-91
2021/04/09 05:54:47;;;;;;;3.83;1.37;;;6.80;99.90;;;;;;4980271;28;20616;-92
2021/04/09 05:57:18;;;;;;;6.03;1.70;;;6.70;99.90;;;;;;4994192;28;20199;-90
2021/04/09 05:59:49;;;;;;;3.50;1.30;;;6.70;99.90;;;;;;4998659;28;20212;-91
2021/04/09 06:02:21;;;;;;;2.70;1.20;;;6.60;99.90;;;;;;4986841;28;20622;-92
2021/04/09 06:04:52;;;;;;;5.53;1.60;;;6.60;99.90;;;;;;4981774;28;20236;-92
2021/04/09 06:07:26;;;;;;;3.87;1.33;;;6.50;99.90;;;;;;4980906;28;20608;-92
2021/04/09 06:09:57;;;;;;;3.47;1.73;;;6.50;99.90;;;;;;4984056;28;20219;-92
2021/04/09 06:12:28;;;;;;;2.43;1.40;;;6.50;99.90;;;;;;4987285;28;20213;-92
2021/04/09 06:14:59;;;;;;;7.80;1.87;;;6.60;99.90;;;;;;4987476;28;20213;-92
2021/04/09 06:17:30;;;;;;;4.50;1.70;;;6.60;99.90;;;;;;4985712;28;20207;-93
2021/04/09 06:20:00;;;;;;;5.43;2.20;;;6.70;99.90;;;;;;4982046;28;20277;-93
2021/04/09 06:22:32;;;;;;;4.03;2.00;;;6.70;99.90;;;;;;4994866;28;20297;-94
2021/04/09 06:25:02;;;;;;;5.17;2.10;;;6.70;99.90;;;;;;5014125;28;20249;-93
2021/04/09 06:27:33;;;;;;;5.57;1.90;;;6.70;99.90;;;;;;5009208;28;20245;-92
2021/04/09 06:30:06;;;;;;;6.00;2.20;;;6.80;99.90;;;;;;4998616;28;20213;-93
2021/04/09 06:32:37;;;;;;;2.87;1.73;;;6.80;99.90;;;;;;4999605;28;20248;-92
2021/04/09 06:35:10;;;;;;;4.97;2.83;;;6.70;99.90;;;;;;4998894;28;20269;-92
2021/04/09 06:37:43;;;;;;;6.23;3.03;;;6.70;99.90;;;;;;4996828;28;20253;-92
2021/04/09 06:40:16;;;;;;;7.43;3.23;;;6.60;99.90;;;;;;4998874;28;20237;-92
2021/04/09 06:42:47;;;;;;;8.47;3.97;;;6.60;99.90;;;;;;4998442;28;20208;-92
2021/04/09 06:45:19;;;;;;;11.60;3.37;;;6.70;99.90;;;;;;4998557;28;20260;-92
2021/04/09 06:47:50;;;;;;;5.10;2.17;;;6.80;99.90;;;;;;5000300;28;20285;-91
2021/04/09 06:50:23;;;;;;;2.93;1.20;;;6.80;99.90;;;;;;4998370;28;20213;-92
2021/04/09 06:52:58;;;;;;;4.40;1.63;;;6.80;99.90;;;;;;4998143;28;20217;-91
2021/04/09 06:55:29;;;;;;;5.53;1.10;;;6.90;99.90;;;;;;4997813;28;20217;-92
2021/04/09 06:58:02;;;;;;;5.57;1.37;;;7.00;99.90;;;;;;4997160;28;20204;-92
2021/04/09 07:00:36;;;;;;;5.77;1.50;;;7.00;99.90;;;;;;4997221;28;20210;-92
2021/04/09 07:03:10;;;;;;;5.47;1.20;;;7.10;99.90;;;;;;4997187;28;20272;-91
2021/04/09 07:05:41;;;;;;;6.57;1.90;;;7.10;99.90;;;;;;4996945;28;20237;-91
2021/04/09 07:08:14;;;;;;;4.73;1.37;;;7.00;99.90;;;;;;4996698;28;20208;-91
2021/04/09 07:10:44;;;;;;;6.33;1.37;;;7.00;99.90;;;;;;4997541;28;20213;-91
2021/04/09 07:13:16;;;;;;;4.50;1.50;;;7.00;99.90;;;;;;4995570;28;20248;-91
2021/04/09 07:15:48;;;;;;;7.80;1.97;;;7.00;99.90;;;;;;4996810;28;20724;-92
2021/04/09 07:18:19;;;;;;;4.50;1.60;;;7.00;99.90;;;;;;4995961;28;20264;-92
2021/04/09 07:20:50;;;;;;;4.27;1.60;;;7.00;99.90;;;;;;5011024;28;20264;-92
2021/04/09 07:23:23;;;;;;;8.77;1.70;;;7.00;99.90;;;;;;5002236;28;20207;-93
2021/04/09 07:25:55;;;;;;;7.57;1.40;;;7.00;99.90;;;;;;4996967;28;20583;-92
2021/04/09 07:28:26;;;;;;;5.70;1.47;;;6.90;99.90;;;;;;4996110;28;20206;-92
2021/04/09 07:30:57;;;;;;;3.10;1.50;;;6.90;99.90;;;;;;4997706;28;20232;-93
2021/04/09 07:33:29;;;;;;;2.17;1.00;;;6.80;99.90;;;;;;4998673;28;20206;-92
2021/04/09 07:36:01;;;;;;;3.90;1.27;;;6.80;99.90;;;;;;5002309;28;20217;-92
2021/04/09 07:38:35;;;;;;;4.93;1.30;;;6.90;99.90;;;;;;4999606;28;20209;-92
2021/04/09 07:41:07;;;;;;;5.50;1.30;;;6.80;99.90;;;;;;5000275;28;20616;-93
2021/04/09 07:43:39;;;;;;;5.13;1.43;;;6.80;99.90;;;;;;4990420;28;20226;-92
2021/04/09 07:46:20;;;;;;;5.60;1.43;;;6.70;99.90;;;;;;4983335;28;20228;-91
2021/04/09 07:49:02;;;;;;;3.43;1.07;;;6.70;99.90;;;;;;4982671;28;20235;-92
2021/04/09 07:51:33;;;;;;;6.80;1.33;;;6.60;99.90;;;;;;4985902;28;20238;-91
2021/04/09 07:54:12;;;;;;;6.30;1.47;;;6.60;99.90;;;;;;4986482;28;20640;-92
2021/04/09 07:56:49;;;;;;;4.50;1.20;;;6.60;99.90;;;;;;4986764;28;20238;-91
2021/04/09 07:59:38;;;;;;;4.40;1.20;;;6.50;99.90;;;;;;4981866;28;20214;-91
2021/04/09 08:02:09;;;;;;;3.70;1.37;;;6.50;99.90;;;;;;4979906;28;20211;-92
2021/04/09 08:04:41;;;;;;;3.17;0.73;;;6.60;99.90;;;;;;4977402;28;20317;-92
2021/04/09 08:07:35;;;;;;;3.00;1.17;;;6.60;99.90;;;;;;4978743;28;20203;-91
2021/04/09 08:10:14;;;;;;;3.13;1.07;;;6.60;99.90;;;;;;4976630;28;20223;-91
2021/04/09 08:12:51;;;;;;;3.33;1.27;;;6.70;99.90;;;;;;4978543;28;20226;-92
2021/04/09 08:15:24;;;;;;;3.27;1.37;;;6.60;99.90;;;;;;4976965;28;20587;-91
2021/04/09 08:18:00;;;;;;;3.37;1.10;;;6.60;99.90;;;;;;4982160;28;20218;-92
2021/04/09 08:20:34;;;;;;;5.20;1.47;;;6.50;99.90;;;;;;4979431;28;20207;-92
2021/04/09 08:23:07;;;;;;;4.97;1.40;;;6.50;99.90;;;;;;4985786;28;20245;-92
2021/04/09 08:25:41;;;;;;;3.97;1.33;;;6.50;99.90;;;;;;4999941;28;20230;-91
2021/04/09 08:28:13;;;;;;;6.97;1.53;;;6.40;99.90;;;;;;4998052;28;20206;-92
2021/04/09 08:30:46;;;;;;;5.70;1.60;;;6.30;99.90;;;;;;4995988;28;20576;-92
2021/04/09 08:33:17;;;;;;;4.60;1.43;;;6.20;99.90;;;;;;5000473;28;20206;-92
2021/04/09 08:35:47;;;;;;;4.47;1.60;;;6.10;99.90;;;;;;5000578;28;20190;-92
2021/04/09 08:38:17;;;;;;;4.07;1.27;;;6.10;99.90;;;;;;4996496;28;20293;-92
2021/04/09 08:40:50;;;;;;;6.20;1.23;;;6.00;99.90;;;;;;5011856;28;20214;-92
2021/04/09 08:43:22;;;;;;;5.30;1.37;;;5.90;99.90;;;;;;5014829;28;20233;-92
2021/04/09 08:45:53;;;;;;;3.83;1.27;;;5.90;99.90;;;;;;5010803;28;20643;-92
2021/04/09 08:48:25;;;;;;;6.33;1.50;;;5.80;99.90;;;;;;5000073;28;20206;-91
2021/04/09 08:50:56;;;;;;;9.13;1.40;;;5.90;99.90;;;;;;5000688;28;20241;-90
2021/04/09 08:53:28;;;;;;;8.27;1.97;;;5.80;99.90;;;;;;5000885;28;20289;-91
2021/04/09 08:56:04;;;;;;;6.93;1.57;;;5.70;99.90;;;;;;5000857;28;20248;-92
2021/04/09 08:58:47;;;;;;;3.67;1.30;;;5.70;99.90;;;;;;4998706;28;20705;-91
2021/04/09 09:01:18;;;;;;;7.30;1.57;;;5.60;99.90;;;;;;4999875;28;20218;-91
2021/04/09 09:03:48;;;;;;;7.20;1.77;;;5.70;99.90;;;;;;4999314;28;20202;-91
2021/04/09 09:06:19;;;;;;;4.30;1.13;;;5.60;99.90;;;;;;4997651;28;20607;-90
2021/04/09 09:09:02;;;;;;;6.73;1.30;;;5.60;99.90;;;;;;5002414;28;20610;-93
2021/04/09 09:12:01;;;;;;;6.17;1.30;;;5.50;99.90;;;;;;5000030;28;20237;-92
2021/04/09 09:14:47;;;;;;;6.83;1.70;;;5.50;99.90;;;;;;5000904;28;20214;-94
2021/04/09 09:17:42;;;;;;;5.37;1.27;;;5.50;99.90;;;;;;5010667;28;20292;-91
2021/04/09 09:20:21;;;;;;;6.20;1.10;;;5.40;99.90;;;;;;5014001;28;20194;-92
2021/04/09 09:23:01;;;;;;;3.50;1.37;;;5.30;99.90;;;;;;5005924;28;20208;-92
2021/04/09 09:25:37;;;;;;;3.87;1.47;;;5.30;99.90;;;;;;4979805;28;20280;-91
2021/04/09 09:28:19;;;;;;;5.07;1.40;;;5.30;99.90;;;;;;4998559;28;20205;-92
2021/04/09 09:30:56;;;;;;;7.20;1.53;;;5.10;99.90;;;;;;5002031;28;20202;-93
2021/04/09 09:33:28;;;;;;;3.97;1.20;;;5.10;99.90;;;;;;5001446;28;20206;-92
2021/04/09 09:36:04;;;;;;;4.47;1.20;;;5.00;99.90;;;;;;5008576;28;20207;-91
2021/04/09 09:38:56;;;;;;;7.33;1.40;;;4.90;99.90;;;;;;5008100;28;20244;-93
2021/04/09 09:41:45;;;;;;;7.27;1.83;;;4.90;99.90;;;;;;4989685;28;20217;-91
2021/04/09 09:44:32;;;;;;;4.67;1.13;;;4.80;99.90;;;;;;4984534;28;20231;-93
2021/04/09 09:47:06;;;;;;;3.43;1.10;;;4.70;99.90;;;;;;4992682;28;20911;-92
2021/04/09 09:49:38;;;;;;;4.57;1.40;;;4.70;99.90;;;;;;5000255;28;20237;-92
2021/04/09 09:52:25;;;;;;;6.90;1.80;;;4.60;99.90;;;;;;4999711;28;20210;-91
2021/04/09 09:55:15;;;;;;;3.40;1.30;;;4.60;99.90;;;;;;4999339;28;20273;-92
2021/04/09 09:57:51;;;;;;;6.57;1.30;;;4.50;99.90;;;;;;4997850;28;20206;-92
2021/04/09 10:00:36;;;;;;;3.73;1.00;;;4.40;99.90;;;;;;4999615;28;20546;-92
2021/04/09 10:03:22;;;;;;;5.13;1.47;;;4.40;99.90;;;;;;5000822;28;20210;-92
2021/04/09 10:06:02;;;;;;;6.80;1.50;;;4.30;99.90;;;;;;5002318;28;20281;-92
2021/04/09 10:08:53;;;;;;;5.30;1.33;;;4.30;99.90;;;;;;5000532;28;20216;-90
2021/04/09 10:11:26;;;;;;;7.57;1.83;;;4.30;99.90;;;;;;5001365;28;20207;-91
2021/04/09 10:13:56;;;;;;;6.77;1.63;;;4.30;99.90;;;;;;5000797;28;20206;-91
2021/04/09 10:16:30;;;;;;;6.10;1.50;;;4.20;99.90;;;;;;4985495;28;20198;-93
2021/04/09 10:19:08;;;;;;;5.80;1.40;;;4.20;99.90;;;;;;5003292;28;20216;-93
2021/04/09 10:21:41;;;;;;;4.13;1.27;;;4.10;99.90;;;;;;5010082;28;20190;-93
2021/04/09 10:24:28;;;;;;;6.87;1.53;;;4.10;99.90;;;;;;4998677;28;20234;-92
2021/04/09 10:27:02;;;;;;;8.20;1.53;;;4.10;99.90;;;;;;4998193;28;20183;-90
2021/04/09 10:29:34;;;;;;;2.73;1.17;;;4.10;99.90;;;;;;4999371;28;20207;-92
2021/04/09 10:32:16;;;;;;;6.40;1.40;;;4.10;99.90;;;;;;4997709;28;20206;-93
2021/04/09 10:34:51;;;;;;;3.43;1.47;;;4.10;99.90;;;;;;4996211;28;20203;-92
2021/04/09 10:37:24;;;;;;;12.30;2.00;;;4.00;99.90;;;;;;4994189;28;20643;-92
2021/04/09 10:39:55;;;;;;;5.27;1.20;;;4.00;99.90;;;;;;4986292;28;20287;-92
2021/04/09 10:42:27;;;;;;;5.27;1.40;;;3.90;99.90;;;;;;4988050;28;20214;-92
2021/04/09 10:44:57;;;;;;;5.83;1.83;;;3.90;99.90;;;;;;4988701;28;20695;-90
2021/04/09 10:47:32;;;;;;;8.57;2.00;;;3.90;99.90;;;;;;4987967;28;20251;-92
2021/04/09 10:50:03;;;;;;;5.00;1.90;;;3.90;99.90;;;;;;4986874;28;20550;-91
2021/04/09 10:52:34;;;;;;;3.93;1.70;;;3.90;99.90;;;;;;4987081;28;20234;-90
2021/04/09 10:55:07;;;;;;;9.03;3.10;;;3.90;99.90;;;;;;4985003;28;20217;-91
2021/04/09 10:57:38;;;;;;;7.50;2.60;;;3.80;99.90;;;;;;4994242;28;20218;-91
2021/04/09 11:00:10;;;;;;;8.53;2.83;;;3.80;99.90;;;;;;4993295;28;20237;-91
2021/04/09 11:02:43;;;;;;;6.57;3.17;;;3.70;99.90;;;;;;4988022;28;20232;-91
2021/04/09 11:05:15;;;;;;;9.33;3.50;;;3.70;99.90;;;;;;4981596;28;20247;-90
2021/04/09 11:07:47;;;;;;;8.77;3.20;;;3.60;99.90;;;;;;4978626;28;20214;-92
2021/04/09 11:10:38;;;;;;;6.30;3.57;;;3.60;99.90;;;;;;4978147;28;20636;-91
2021/04/09 11:13:13;;;;;;;10.80;3.37;;;3.60;99.90;;;;;;4984947;28;20211;-91
2021/04/09 11:15:45;;;;;;;9.27;3.10;;;3.60;99.90;;;;;;4978791;28;20207;-92
2021/04/09 11:18:17;;;;;;;6.10;2.73;;;3.50;99.90;;;;;;4977617;28;20676;-92
2021/04/09 11:20:49;;;;;;;4.83;2.83;;;3.50;99.90;;;;;;4981906;28;20214;-92
2021/04/09 11:23:20;;;;;;;7.77;2.70;;;3.50;99.90;;;;;;4978204;28;20207;-93
2021/04/09 11:25:51;;;;;;;5.13;2.67;;;3.40;99.90;;;;;;4979276;28;20274;-92
2021/04/09 11:28:26;;;;;;;7.53;2.70;;;3.30;99.90;;;;;;4977227;28;20569;-92
2021/04/09 11:30:58;;;;;;;5.03;2.30;;;3.30;99.90;;;;;;4978445;28;20207;-92
2021/04/09 11:33:45;;;;;;;5.27;1.93;;;3.30;99.90;;;;;;4978737;28;20234;-92
2021/04/09 11:36:17;;;;;;;6.10;2.47;;;3.30;99.90;;;;;;4982274;28;20214;-91
2021/04/09 11:39:09;;;;;;;5.13;1.60;;;3.20;99.90;;;;;;4988562;28;20244;-92
2021/04/09 11:41:42;;;;;;;4.33;1.83;;;3.20;99.90;;;;;;5000813;28;20210;-91
2021/04/09 11:44:43;;;;;;;3.10;1.77;;;3.20;99.90;;;;;;4998863;28;20231;-91
2021/04/09 11:47:22;;;;;;;2.63;1.30;;;3.10;99.90;;;;;;4997208;28;20206;-92
2021/04/09 11:50:19;;;;;;;5.30;1.77;;;3.10;99.90;;;;;;4997872;28;20209;-92
2021/04/09 11:52:52;;;;;;;5.17;1.80;;;3.10;99.90;;;;;;4984055;28;20214;-90
2021/04/09 11:55:25;;;;;;;3.57;1.70;;;3.10;99.90;;;;;;4999930;28;20218;-91
2021/04/09 11:57:56;;;;;;;7.53;2.20;;;3.10;99.90;;;;;;4997559;28;20209;-92
2021/04/09 12:00:29;;;;;;;6.83;2.37;;;3.10;99.90;;;;;;5012663;28;20214;-92
2021/04/09 12:03:02;;;;;;;5.80;1.60;;;3.10;99.90;;;;;;5014110;28;20242;-92
2021/04/09 12:05:35;;;;;;;5.17;1.50;;;3.00;99.90;;;;;;5004209;28;20254;-91
2021/04/09 12:08:07;;;;;;;4.00;1.70;;;3.00;99.90;;;;;;5006002;28;20277;-91
2021/04/09 12:10:37;;;;;;;3.87;1.33;;;3.00;99.90;;;;;;5006844;28;20206;-91
2021/04/09 12:13:09;;;;;;;4.67;1.57;;;3.00;99.90;;;;;;5006175;28;20297;-92
2021/04/09 12:15:40;;;;;;;5.57;1.53;;;2.90;99.90;;;;;;5000171;28;20238;-92
2021/04/09 12:18:11;;;;;;;3.87;1.50;;;2.90;99.90;;;;;;4999679;28;20244;-92
2021/04/09 12:20:43;;;;;;;5.07;1.50;;;2.90;99.90;;;;;;5003130;28;20244;-93
2021/04/09 12:23:14;;;;;;;4.33;1.20;;;2.90;99.90;;;;;;4990347;28;20238;-92
2021/04/09 12:25:45;;;;;;;5.30;1.50;;;2.90;99.90;;;;;;4982890;28;20227;-91
2021/04/09 12:28:16;;;;;;;5.20;1.57;;;2.80;99.90;;;;;;4980364;28;20258;-92
2021/04/09 12:30:48;;;;;;;5.57;1.50;;;2.80;99.90;;;;;;4978182;28;20214;-92
2021/04/09 12:33:19;;;;;;;5.67;1.07;;;2.80;99.90;;;;;;4977050;28;20640;-92
2021/04/09 12:35:54;;;;;;;9.93;1.60;;;2.80;99.90;;;;;;4976719;28;20615;-92
2021/04/09 12:38:24;;;;;;;3.23;1.17;;;2.80;99.90;;;;;;4978056;28;20214;-92
2021/04/09 12:40:57;;;;;;;6.03;1.77;;;2.80;99.90;;;;;;4997354;28;20225;-93
2021/04/09 12:43:29;;;;;;;4.53;1.03;;;2.80;99.90;;;;;;4997342;28;20236;-91
2021/04/09 12:46:00;;;;;;;4.27;1.33;;;2.80;99.90;;;;;;4997420;28;20236;-91
2021/04/09 12:48:31;;;;;;;5.77;1.30;;;2.70;99.90;;;;;;4999453;28;20218;-92
2021/04/09 12:51:03;;;;;;;3.80;1.17;;;2.70;99.90;;;;;;5003809;28;20210;-90
2021/04/09 12:53:34;;;;;;;4.20;1.33;;;2.70;99.90;;;;;;4997283;28;20373;-91
2021/04/09 12:56:04;;;;;;;6.17;1.23;;;2.70;99.90;;;;;;4996381;28;20659;-92
2021/04/09 12:58:35;;;;;;;4.67;1.73;;;2.60;99.90;;;;;;4998442;28;20207;-92
2021/04/09 13:01:06;;;;;;;4.30;1.30;;;2.60;99.90;;;;;;4996361;28;20210;-92
2021/04/09 13:03:36;;;;;;;4.53;1.47;;;2.60;99.90;;;;;;4996703;28;20284;-90
2021/04/09 13:06:10;;;;;;;4.33;1.27;;;2.50;99.90;;;;;;4995922;28;20238;-91
2021/04/09 13:08:42;;;;;;;4.53;1.47;;;2.50;99.90;;;;;;5005047;28;20647;-91
2021/04/09 13:11:14;;;;;;;5.07;1.50;;;2.50;99.90;;;;;;5008039;28;20207;-92
2021/04/09 13:13:44;;;;;;;3.67;1.27;;;2.50;99.90;;;;;;5004808;28;20746;-92
2021/04/09 13:16:15;;;;;;;3.60;1.17;;;2.50;99.90;;;;;;5001948;28;20244;-91
2021/04/09 13:18:46;;;;;;;5.03;1.30;;;2.50;99.90;;;;;;4999719;28;20222;-90
2021/04/09 13:21:19;;;;;;;4.00;1.67;;;2.40;99.90;;;;;;5001456;28;20310;-91
2021/04/09 13:23:51;;;;;;;3.30;1.23;;;2.40;99.90;;;;;;4996414;28;20221;-92
2021/04/09 13:26:24;;;;;;;6.07;1.80;;;2.30;99.90;;;;;;4998419;28;20270;-91
2021/04/09 13:28:54;;;;;;;3.20;1.40;;;2.30;99.90;;;;;;5000044;28;20206;-92
2021/04/09 13:31:26;;;;;;;5.23;1.30;;;2.30;99.90;;;;;;5001989;28;20663;-93